createdAt,value
2018-10-01T00:00:22.956Z,1007.36
2018-10-01T00:01:22.937Z,1007.30
2018-10-01T00:02:22.918Z,1007.34
2018-10-01T00:03:22.958Z,1007.29
2018-10-01T00:04:22.869Z,1007.32
2018-10-01T00:05:22.850Z,1007.29
2018-10-01T00:06:22.831Z,1007.26
2018-10-01T00:07:22.808Z,1007.29
2018-10-01T00:08:22.788Z,1007.29
2018-10-01T00:09:22.766Z,1007.28
2018-10-01T00:10:22.738Z,1007.30
2018-10-01T00:11:22.719Z,1007.26
2018-10-01T00:12:22.695Z,1007.26
2018-10-01T00:13:22.676Z,1007.24
2018-10-01T00:14:22.655Z,1007.23
2018-10-01T00:15:22.639Z,1007.20
2018-10-01T00:16:22.614Z,1007.19
2018-10-01T00:17:22.592Z,1007.16
2018-10-01T00:18:22.570Z,1007.19
2018-10-01T00:19:22.550Z,1007.17
2018-10-01T00:20:22.529Z,1007.16
2018-10-01T00:21:22.511Z,1007.15
2018-10-01T00:22:22.483Z,1007.14
2018-10-01T00:23:22.467Z,1007.18
2018-10-01T00:24:22.443Z,1007.10
2018-10-01T00:25:22.419Z,1007.13
2018-10-01T00:26:22.397Z,1007.13
2018-10-01T00:27:22.379Z,1007.13
2018-10-01T00:28:22.353Z,1007.11
2018-10-01T00:29:22.335Z,1007.11
2018-10-01T00:30:22.310Z,1007.12
2018-10-01T00:31:22.285Z,1007.09
2018-10-01T00:32:22.272Z,1007.09
2018-10-01T00:33:22.248Z,1007.08
2018-10-01T00:34:22.227Z,1007.05
2018-10-01T00:35:22.215Z,1007.04
2018-10-01T00:36:22.182Z,1007.06
2018-10-01T00:37:22.159Z,1007.06
2018-10-01T00:38:22.152Z,1007.03
2018-10-01T00:39:22.121Z,1007.02
2018-10-01T00:40:22.100Z,1007.03
2018-10-01T00:41:22.077Z,1007.01
2018-10-01T00:42:22.050Z,1007.03
2018-10-01T00:43:22.035Z,1007.02
2018-10-01T00:44:22.013Z,1007.01
2018-10-01T00:45:21.987Z,1006.97
2018-10-01T00:46:21.975Z,1006.98
2018-10-01T00:47:21.947Z,1006.97
2018-10-01T00:48:21.923Z,1006.96
2018-10-01T00:49:21.900Z,1006.95
2018-10-01T00:50:21.879Z,1006.99
2018-10-01T00:51:21.914Z,1006.98
2018-10-01T00:52:21.837Z,1006.98
2018-10-01T00:53:21.815Z,1006.95
2018-10-01T00:54:21.793Z,1006.96
2018-10-01T00:55:21.773Z,1006.95
2018-10-01T00:56:21.751Z,1006.95
2018-10-01T00:57:21.733Z,1006.93
2018-10-01T00:58:21.710Z,1006.93
2018-10-01T00:59:21.688Z,1006.93
2018-10-01T01:00:21.667Z,1006.89
2018-10-01T01:01:21.643Z,1006.87
2018-10-01T01:02:21.623Z,1006.91
2018-10-01T01:03:21.608Z,1006.89
2018-10-01T01:04:21.580Z,1006.91
2018-10-01T01:05:21.558Z,1006.91
2018-10-01T01:06:21.535Z,1006.89
2018-10-01T01:07:21.513Z,1006.88
2018-10-01T01:08:21.495Z,1006.94
2018-10-01T01:09:21.471Z,1006.88
2018-10-01T01:10:21.448Z,1006.89
2018-10-01T01:11:21.426Z,1006.91
2018-10-01T01:12:21.404Z,1006.88
2018-10-01T01:13:21.382Z,1006.90
2018-10-01T01:14:21.369Z,1006.88
2018-10-01T01:15:21.341Z,1006.88
2018-10-01T01:16:21.320Z,1006.90
2018-10-01T01:17:21.298Z,1006.85
2018-10-01T01:18:21.278Z,1006.87
2018-10-01T01:19:21.256Z,1006.86
2018-10-01T01:20:21.238Z,1006.88
2018-10-01T01:21:21.211Z,1006.86
2018-10-01T01:22:21.192Z,1006.86
2018-10-01T01:23:21.168Z,1006.81
2018-10-01T01:24:21.155Z,1006.82
2018-10-01T01:25:21.127Z,1006.86
2018-10-01T01:26:21.110Z,1006.85
2018-10-01T01:27:21.081Z,1006.83
2018-10-01T01:28:21.069Z,1006.80
2018-10-01T01:29:21.041Z,1006.84
2018-10-01T01:30:21.016Z,1006.82
2018-10-01T01:31:20.996Z,1006.84
2018-10-01T01:32:20.977Z,1006.82
2018-10-01T01:33:20.953Z,1006.82
2018-10-01T01:34:20.929Z,1006.83
2018-10-01T01:35:20.910Z,1006.81
2018-10-01T01:36:20.883Z,1006.81
2018-10-01T01:37:20.865Z,1006.79
2018-10-01T01:38:20.840Z,1006.82
2018-10-01T01:39:20.819Z,1006.81
2018-10-01T01:40:20.804Z,1006.85
2018-10-01T01:41:20.778Z,1006.79
2018-10-01T01:42:20.756Z,1006.82
2018-10-01T01:43:20.735Z,1006.79
2018-10-01T01:44:20.716Z,1006.80
2018-10-01T01:45:20.699Z,1006.79
2018-10-01T01:46:20.672Z,1006.84
2018-10-01T01:47:20.646Z,1006.80
2018-10-01T01:48:20.628Z,1006.81
2018-10-01T01:49:20.601Z,1006.81
2018-10-01T01:50:20.583Z,1006.77
2018-10-01T01:51:20.559Z,1006.76
2018-10-01T01:52:20.541Z,1006.77
2018-10-01T01:53:20.521Z,1006.75
2018-10-01T01:54:20.493Z,1006.75
2018-10-01T01:55:20.472Z,1006.76
2018-10-01T01:56:20.451Z,1006.74
2018-10-01T01:57:20.435Z,1006.73
2018-10-01T01:58:20.408Z,1006.72
2018-10-01T01:59:21.599Z,1006.70
2018-10-01T02:00:20.370Z,1006.68
2018-10-01T02:01:20.345Z,1006.69
2018-10-01T02:02:20.320Z,1006.65
2018-10-01T02:03:20.299Z,1006.66
2018-10-01T02:04:20.279Z,1006.68
2018-10-01T02:05:20.254Z,1006.67
2018-10-01T02:06:20.232Z,1006.67
2018-10-01T02:07:20.213Z,1006.63
2018-10-01T02:08:20.191Z,1006.58
2018-10-01T02:09:20.164Z,1006.61
2018-10-01T02:10:20.148Z,1006.62
2018-10-01T02:11:20.121Z,1006.58
2018-10-01T02:12:20.105Z,1006.56
2018-10-01T02:13:20.085Z,1006.58
2018-10-01T02:14:20.057Z,1006.50
2018-10-01T02:15:20.039Z,1006.55
2018-10-01T02:16:20.011Z,1006.54
2018-10-01T02:17:19.994Z,1006.52
2018-10-01T02:18:19.971Z,1006.56
2018-10-01T02:19:19.949Z,1006.53
2018-10-01T02:20:19.925Z,1006.53
2018-10-01T02:21:19.904Z,1006.53
2018-10-01T02:22:19.883Z,1006.46
2018-10-01T02:23:19.862Z,1006.45
2018-10-01T02:24:19.843Z,1006.46
2018-10-01T02:25:19.816Z,1006.48
2018-10-01T02:26:19.795Z,1006.49
2018-10-01T02:27:19.771Z,1006.51
2018-10-01T02:28:19.751Z,1006.52
2018-10-01T02:29:19.731Z,1006.49
2018-10-01T02:30:19.707Z,1006.50
2018-10-01T02:31:19.685Z,1006.51
2018-10-01T02:32:19.662Z,1006.51
2018-10-01T02:33:19.646Z,1006.53
2018-10-01T02:34:19.616Z,1006.54
2018-10-01T02:35:19.593Z,1006.54
2018-10-01T02:36:19.579Z,1006.54
2018-10-01T02:37:19.553Z,1006.58
2018-10-01T02:38:19.528Z,1006.59
2018-10-01T02:39:19.507Z,1006.53
2018-10-01T02:40:19.491Z,1006.55
2018-10-01T02:41:19.471Z,1006.55
2018-10-01T02:42:19.444Z,1006.52
2018-10-01T02:43:19.424Z,1006.54
2018-10-01T02:44:19.395Z,1006.54
2018-10-01T02:45:19.379Z,1006.53
2018-10-01T02:46:19.357Z,1006.50
2018-10-01T02:47:19.331Z,1006.49
2018-10-01T02:48:19.318Z,1006.50
2018-10-01T02:49:19.292Z,1006.53
2018-10-01T02:50:19.270Z,1006.52
2018-10-01T02:51:19.247Z,1006.52
2018-10-01T02:52:19.225Z,1006.52
2018-10-01T02:53:19.198Z,1006.54
2018-10-01T02:54:19.179Z,1006.51
2018-10-01T02:55:19.154Z,1006.53
2018-10-01T02:56:19.135Z,1006.50
2018-10-01T02:57:19.122Z,1006.55
2018-10-01T02:58:19.086Z,1006.61
2018-10-01T02:59:19.070Z,1006.51
2018-10-01T03:00:19.053Z,1006.48
2018-10-01T03:01:19.024Z,1006.59
2018-10-01T03:02:19.002Z,1006.52
2018-10-01T03:03:18.983Z,1006.52
2018-10-01T03:04:18.963Z,1006.44
2018-10-01T03:05:18.931Z,1006.44
2018-10-01T03:06:18.908Z,1006.44
2018-10-01T03:07:18.896Z,1006.43
2018-10-01T03:08:18.868Z,1006.44
2018-10-01T03:09:18.845Z,1006.48
2018-10-01T03:10:18.824Z,1006.46
2018-10-01T03:11:18.806Z,1006.43
2018-10-01T03:12:18.838Z,1006.42
2018-10-01T03:13:18.760Z,1006.32
2018-10-01T03:14:18.736Z,1006.35
2018-10-01T03:15:18.717Z,1006.38
2018-10-01T03:16:18.690Z,1006.38
2018-10-01T03:17:18.670Z,1006.34
2018-10-01T03:18:18.644Z,1006.31
2018-10-01T03:19:18.626Z,1006.29
2018-10-01T03:20:18.604Z,1006.21
2018-10-01T03:21:18.660Z,1006.18
2018-10-01T03:22:18.558Z,1006.17
2018-10-01T03:23:18.534Z,1006.19
2018-10-01T03:24:18.511Z,1006.16
2018-10-01T03:25:18.490Z,1006.13
2018-10-01T03:26:18.472Z,1006.18
2018-10-01T03:27:18.448Z,1006.20
2018-10-01T03:28:18.428Z,1006.17
2018-10-01T03:29:18.413Z,1006.15
2018-10-01T03:30:18.381Z,1006.15
2018-10-01T03:31:18.354Z,1006.14
2018-10-01T03:32:18.333Z,1006.15
2018-10-01T03:33:18.310Z,1006.13
2018-10-01T03:34:18.292Z,1006.13
2018-10-01T03:35:18.269Z,1006.16
2018-10-01T03:36:18.250Z,1006.16
2018-10-01T03:37:18.228Z,1006.23
2018-10-01T03:38:18.202Z,1006.22
2018-10-01T03:39:18.176Z,1006.15
2018-10-01T03:40:18.237Z,1006.22
2018-10-01T03:41:18.136Z,1006.21
2018-10-01T03:42:18.111Z,1006.15
2018-10-01T03:43:18.092Z,1006.12
2018-10-01T03:44:18.070Z,1006.18
2018-10-01T03:45:18.050Z,1006.23
2018-10-01T03:46:18.023Z,1006.18
2018-10-01T03:47:18.015Z,1006.29
2018-10-01T03:48:17.981Z,1006.24
2018-10-01T03:49:17.959Z,1006.22
2018-10-01T03:50:17.935Z,1006.22
2018-10-01T03:51:17.911Z,1006.22
2018-10-01T03:52:17.894Z,1006.18
2018-10-01T03:53:17.867Z,1006.24
2018-10-01T03:54:17.842Z,1006.21
2018-10-01T03:55:17.822Z,1006.20
2018-10-01T03:56:17.801Z,1006.24
2018-10-01T03:57:17.782Z,1006.16
2018-10-01T03:58:17.759Z,1006.22
2018-10-01T03:59:17.734Z,1006.20
2018-10-01T04:00:17.712Z,1006.21
2018-10-01T04:01:17.686Z,1006.21
2018-10-01T04:02:17.671Z,1006.21
2018-10-01T04:03:17.644Z,1006.23
2018-10-01T04:04:17.623Z,1006.24
2018-10-01T04:05:17.601Z,1006.30
2018-10-01T04:06:17.589Z,1006.27
2018-10-01T04:07:17.552Z,1006.22
2018-10-01T04:08:17.533Z,1006.23
2018-10-01T04:09:17.514Z,1006.27
2018-10-01T04:10:17.488Z,1006.26
2018-10-01T04:11:17.468Z,1006.24
2018-10-01T04:12:17.442Z,1006.24
2018-10-01T04:13:17.420Z,1006.24
2018-10-01T04:14:17.397Z,1006.23
2018-10-01T04:15:17.378Z,1006.23
2018-10-01T04:16:17.354Z,1006.20
2018-10-01T04:17:17.331Z,1006.24
2018-10-01T04:18:17.309Z,1006.21
2018-10-01T04:19:17.289Z,1006.25
2018-10-01T04:20:17.270Z,1006.23
2018-10-01T04:21:17.242Z,1006.22
2018-10-01T04:22:17.218Z,1006.20
2018-10-01T04:23:17.194Z,1006.21
2018-10-01T04:24:17.174Z,1006.23
2018-10-01T04:25:17.154Z,1006.23
2018-10-01T04:26:17.132Z,1006.20
2018-10-01T04:27:17.109Z,1006.20
2018-10-01T04:28:17.140Z,1006.21
2018-10-01T04:29:17.063Z,1006.21
2018-10-01T04:30:17.043Z,1006.20
2018-10-01T04:31:17.017Z,1006.16
2018-10-01T04:32:16.998Z,1006.20
2018-10-01T04:33:16.972Z,1006.14
2018-10-01T04:34:16.951Z,1006.18
2018-10-01T04:35:16.926Z,1006.14
2018-10-01T04:36:16.907Z,1006.17
2018-10-01T04:37:16.887Z,1006.13
2018-10-01T04:38:16.859Z,1006.14
2018-10-01T04:39:16.838Z,1006.13
2018-10-01T04:40:16.818Z,1006.16
2018-10-01T04:41:16.792Z,1006.15
2018-10-01T04:42:16.775Z,1006.17
2018-10-01T04:43:16.750Z,1006.15
2018-10-01T04:44:16.724Z,1006.11
2018-10-01T04:45:16.708Z,1006.13
2018-10-01T04:46:16.687Z,1006.09
2018-10-01T04:47:16.662Z,1006.07
2018-10-01T04:48:16.641Z,1006.08
2018-10-01T04:49:16.621Z,1006.07
2018-10-01T04:50:16.589Z,1006.10
2018-10-01T04:51:16.570Z,1006.09
2018-10-01T04:52:16.550Z,1006.08
2018-10-01T04:53:16.530Z,1006.13
2018-10-01T04:54:16.504Z,1006.10
2018-10-01T04:55:16.484Z,1006.13
2018-10-01T04:56:16.460Z,1006.12
2018-10-01T04:57:16.438Z,1006.16
2018-10-01T04:58:16.554Z,1006.14
2018-10-01T04:59:16.389Z,1006.15
2018-10-01T05:00:16.368Z,1006.14
2018-10-01T05:01:16.342Z,1006.15
2018-10-01T05:02:16.324Z,1006.19
2018-10-01T05:03:16.303Z,1006.20
2018-10-01T05:04:16.278Z,1006.17
2018-10-01T05:05:16.259Z,1006.22
2018-10-01T05:06:16.370Z,1006.15
2018-10-01T05:07:16.217Z,1006.18
2018-10-01T05:08:16.189Z,1006.25
2018-10-01T05:09:16.168Z,1006.25
2018-10-01T05:10:16.149Z,1006.27
2018-10-01T05:11:16.120Z,1006.25
2018-10-01T05:12:16.096Z,1006.22
2018-10-01T05:13:16.083Z,1006.21
2018-10-01T05:14:16.054Z,1006.22
2018-10-01T05:15:16.032Z,1006.25
2018-10-01T05:16:16.010Z,1006.24
2018-10-01T05:17:15.986Z,1006.25
2018-10-01T05:18:15.968Z,1006.25
2018-10-01T05:19:15.940Z,1006.26
2018-10-01T05:20:15.922Z,1006.28
2018-10-01T05:21:15.895Z,1006.28
2018-10-01T05:22:15.878Z,1006.26
2018-10-01T05:23:15.854Z,1006.29
2018-10-01T05:24:15.832Z,1006.30
2018-10-01T05:25:15.806Z,1006.30
2018-10-01T05:26:15.785Z,1006.32
2018-10-01T05:27:15.846Z,1006.28
2018-10-01T05:28:15.740Z,1006.35
2018-10-01T05:29:15.716Z,1006.32
2018-10-01T05:30:15.693Z,1006.33
2018-10-01T05:31:15.674Z,1006.34
2018-10-01T05:32:15.651Z,1006.32
2018-10-01T05:33:15.678Z,1006.30
2018-10-01T05:34:15.608Z,1006.31
2018-10-01T05:35:15.578Z,1006.32
2018-10-01T05:36:15.561Z,1006.32
2018-10-01T05:37:15.536Z,1006.35
2018-10-01T05:38:15.510Z,1006.35
2018-10-01T05:39:15.494Z,1006.37
2018-10-01T05:40:15.472Z,1006.35
2018-10-01T05:41:15.449Z,1006.33
2018-10-01T05:42:15.425Z,1006.38
2018-10-01T05:43:15.403Z,1006.35
2018-10-01T05:44:15.377Z,1006.36
2018-10-01T05:45:15.362Z,1006.33
2018-10-01T05:46:15.330Z,1006.38
2018-10-01T05:47:15.314Z,1006.37
2018-10-01T05:48:15.289Z,1006.37
2018-10-01T05:49:15.363Z,1006.38
2018-10-01T05:50:15.248Z,1006.39
2018-10-01T05:51:15.220Z,1006.40
2018-10-01T05:52:15.204Z,1006.44
2018-10-01T05:53:15.178Z,1006.42
2018-10-01T05:54:15.152Z,1006.44
2018-10-01T05:55:15.142Z,1006.45
2018-10-01T05:56:15.110Z,1006.45
2018-10-01T05:57:15.089Z,1006.45
2018-10-01T05:58:15.144Z,1006.52
2018-10-01T05:59:15.048Z,1006.45
2018-10-01T06:00:15.017Z,1006.48
2018-10-01T06:01:14.994Z,1006.53
2018-10-01T06:02:14.974Z,1006.51
2018-10-01T06:03:14.949Z,1006.55
2018-10-01T06:04:14.930Z,1006.52
2018-10-01T06:05:14.914Z,1006.54
2018-10-01T06:06:14.882Z,1006.57
2018-10-01T06:07:14.860Z,1006.57
2018-10-01T06:08:14.842Z,1006.61
2018-10-01T06:09:14.818Z,1006.56
2018-10-01T06:10:14.791Z,1006.57
2018-10-01T06:11:14.774Z,1006.55
2018-10-01T06:12:14.749Z,1006.54
2018-10-01T06:13:14.731Z,1006.58
2018-10-01T06:14:14.708Z,1006.61
2018-10-01T06:15:14.682Z,1006.60
2018-10-01T06:16:14.658Z,1006.66
2018-10-01T06:17:14.642Z,1006.65
2018-10-01T06:18:14.679Z,1006.67
2018-10-01T06:19:14.601Z,1006.65
2018-10-01T06:20:14.579Z,1006.68
2018-10-01T06:21:14.552Z,1006.71
2018-10-01T06:22:14.529Z,1006.73
2018-10-01T06:23:14.508Z,1006.72
2018-10-01T06:24:14.483Z,1006.75
2018-10-01T06:25:14.577Z,1006.76
2018-10-01T06:26:14.435Z,1006.72
2018-10-01T06:27:14.415Z,1006.77
2018-10-01T06:28:14.393Z,1006.79
2018-10-01T06:29:14.373Z,1006.78
2018-10-01T06:30:14.349Z,1006.80
2018-10-01T06:31:14.321Z,1006.86
2018-10-01T06:32:14.299Z,1006.87
2018-10-01T06:33:14.286Z,1006.85
2018-10-01T06:34:14.255Z,1006.84
2018-10-01T06:35:14.240Z,1006.86
2018-10-01T06:36:14.329Z,1006.88
2018-10-01T06:37:14.196Z,1006.93
2018-10-01T06:38:14.168Z,1006.92
2018-10-01T06:39:14.157Z,1006.93
2018-10-01T06:40:14.175Z,1006.96
2018-10-01T06:41:14.103Z,1007.01
2018-10-01T06:42:14.091Z,1007.02
2018-10-01T06:43:14.060Z,1006.94
2018-10-01T06:44:14.035Z,1006.92
2018-10-01T06:45:14.021Z,1006.94
2018-10-01T06:46:13.995Z,1006.93
2018-10-01T06:47:13.972Z,1007.01
2018-10-01T06:48:13.946Z,1006.99
2018-10-01T06:49:13.925Z,1007.00
2018-10-01T06:50:13.909Z,1006.99
2018-10-01T06:51:13.908Z,1007.00
2018-10-01T06:52:13.871Z,1006.98
2018-10-01T06:53:13.843Z,1007.00
2018-10-01T06:54:13.819Z,1007.01
2018-10-01T06:55:13.797Z,1007.03
2018-10-01T06:56:13.779Z,1006.98
2018-10-01T06:57:13.757Z,1007.00
2018-10-01T06:58:13.729Z,1007.01
2018-10-01T06:59:13.706Z,1006.95
2018-10-01T07:00:13.689Z,1006.99
2018-10-01T07:01:13.719Z,1006.99
2018-10-01T07:02:13.648Z,1006.98
2018-10-01T07:03:13.624Z,1007.01
2018-10-01T07:04:13.609Z,1006.99
2018-10-01T07:05:13.584Z,1006.95
2018-10-01T07:06:13.590Z,1006.98
2018-10-01T07:07:13.545Z,1006.96
2018-10-01T07:08:13.519Z,1006.97
2018-10-01T07:09:13.495Z,1006.98
2018-10-01T07:10:13.472Z,1007.02
2018-10-01T07:11:13.465Z,1007.06
2018-10-01T07:12:13.437Z,1007.04
2018-10-01T07:13:13.409Z,1007.07
2018-10-01T07:14:13.390Z,1007.01
2018-10-01T07:15:13.374Z,1007.02
2018-10-01T07:16:13.354Z,1007.05
2018-10-01T07:17:13.489Z,1007.04
2018-10-01T07:18:13.307Z,1007.08
2018-10-01T07:19:13.281Z,1007.08
2018-10-01T07:20:13.265Z,1007.13
2018-10-01T07:21:13.241Z,1007.11
2018-10-01T07:22:13.223Z,1007.12
2018-10-01T07:23:13.349Z,1007.11
2018-10-01T07:24:13.177Z,1007.11
2018-10-01T07:25:13.161Z,1007.21
2018-10-01T07:26:13.141Z,1007.27
2018-10-01T07:27:13.117Z,1007.20
2018-10-01T07:28:13.103Z,1007.24
2018-10-01T07:29:13.078Z,1007.21
2018-10-01T07:30:13.060Z,1007.21
2018-10-01T07:31:13.043Z,1007.23
2018-10-01T07:32:13.023Z,1007.22
2018-10-01T07:33:13.009Z,1007.21
2018-10-01T07:34:12.979Z,1007.22
2018-10-01T07:35:12.957Z,1007.34
2018-10-01T07:36:12.941Z,1007.36
2018-10-01T07:37:12.919Z,1007.40
2018-10-01T07:38:12.899Z,1007.40
2018-10-01T07:39:12.878Z,1007.39
2018-10-01T07:40:12.864Z,1007.39
2018-10-01T07:41:12.841Z,1007.37
2018-10-01T07:42:12.821Z,1007.43
2018-10-01T07:43:12.803Z,1007.47
2018-10-01T07:44:12.781Z,1007.45
2018-10-01T07:45:12.955Z,1007.49
2018-10-01T07:46:12.823Z,1007.56
2018-10-01T07:47:12.730Z,1007.56
2018-10-01T07:48:12.711Z,1007.55
2018-10-01T07:49:12.694Z,1007.51
2018-10-01T07:50:12.689Z,1007.45
2018-10-01T07:51:12.761Z,1007.37
2018-10-01T07:52:12.647Z,1007.30
2018-10-01T07:53:12.615Z,1007.29
2018-10-01T07:54:12.600Z,1007.25
2018-10-01T07:55:12.581Z,1007.22
2018-10-01T07:56:12.568Z,1007.21
2018-10-01T07:57:12.607Z,1007.18
2018-10-01T07:58:12.535Z,1007.17
2018-10-01T07:59:12.503Z,1007.13
2018-10-01T08:00:12.737Z,1007.17
2018-10-01T08:01:12.475Z,1007.13
2018-10-01T08:02:12.524Z,1007.17
2018-10-01T08:03:12.435Z,1007.13
2018-10-01T08:04:12.417Z,1007.15
2018-10-01T08:05:12.402Z,1007.14
2018-10-01T08:06:12.380Z,1007.17
2018-10-01T08:07:12.363Z,1007.18
2018-10-01T08:08:12.386Z,1007.16
2018-10-01T08:09:12.335Z,1007.17
2018-10-01T08:10:12.312Z,1007.15
2018-10-01T08:11:12.293Z,1007.20
2018-10-01T08:12:12.279Z,1007.22
2018-10-01T08:13:12.259Z,1007.24
2018-10-01T08:14:12.329Z,1007.32
2018-10-01T08:15:12.226Z,1007.38
2018-10-01T08:16:12.205Z,1007.41
2018-10-01T08:17:12.202Z,1007.35
2018-10-01T08:18:12.172Z,1007.41
2018-10-01T08:19:12.156Z,1007.40
2018-10-01T08:20:12.186Z,1007.42
2018-10-01T08:21:12.120Z,1007.43
2018-10-01T08:22:12.102Z,1007.43
2018-10-01T08:23:12.087Z,1007.48
2018-10-01T08:24:12.075Z,1007.52
2018-10-01T08:25:12.057Z,1007.49
2018-10-01T08:26:12.131Z,1007.53
2018-10-01T08:27:12.019Z,1007.55
2018-10-01T08:28:12.001Z,1007.58
2018-10-01T08:29:12.052Z,1007.60
2018-10-01T08:30:11.977Z,1007.59
2018-10-01T08:31:11.945Z,1007.62
2018-10-01T08:32:11.970Z,1007.63
2018-10-01T08:33:11.913Z,1007.62
2018-10-01T08:34:11.895Z,1007.66
2018-10-01T08:35:11.991Z,1007.63
2018-10-01T08:36:11.866Z,1007.60
2018-10-01T08:37:11.900Z,1007.65
2018-10-01T08:38:11.940Z,1007.67
2018-10-01T08:39:11.814Z,1007.65
2018-10-01T08:40:11.798Z,1007.61
2018-10-01T08:41:11.852Z,1007.66
2018-10-01T08:42:11.761Z,1007.75
2018-10-01T08:43:11.743Z,1007.75
2018-10-01T08:44:11.814Z,1007.71
2018-10-01T08:45:11.711Z,1007.76
2018-10-01T08:46:11.698Z,1007.75
2018-10-01T08:47:11.781Z,1007.74
2018-10-01T08:48:11.667Z,1007.81
2018-10-01T08:49:11.645Z,1007.79
2018-10-01T08:50:11.782Z,1007.81
2018-10-01T08:51:11.611Z,1007.77
2018-10-01T08:52:11.635Z,1007.77
2018-10-01T08:53:11.660Z,1007.77
2018-10-01T08:54:11.562Z,1007.75
2018-10-01T08:55:11.544Z,1007.82
2018-10-01T08:56:11.560Z,1007.86
2018-10-01T08:57:11.512Z,1007.93
2018-10-01T08:58:11.499Z,1007.94
2018-10-01T08:59:11.521Z,1007.90
2018-10-01T09:00:11.462Z,1007.94
2018-10-01T09:01:11.558Z,1007.87
2018-10-01T09:02:11.483Z,1007.82
2018-10-01T09:03:11.413Z,1007.83
2018-10-01T09:04:11.399Z,1007.85
2018-10-01T09:05:11.462Z,1007.85
2018-10-01T09:06:11.365Z,1007.93
2018-10-01T09:07:11.348Z,1007.88
2018-10-01T09:08:11.413Z,1007.82
2018-10-01T09:09:11.319Z,1007.80
2018-10-01T09:10:11.304Z,1007.76
2018-10-01T09:11:11.386Z,1007.77
2018-10-01T09:12:11.273Z,1007.81
2018-10-01T09:13:11.257Z,1007.78
2018-10-01T09:14:11.311Z,1007.83
2018-10-01T09:15:11.225Z,1007.82
2018-10-01T09:16:11.213Z,1007.84
2018-10-01T09:17:11.238Z,1007.80
2018-10-01T09:18:11.181Z,1007.80
2018-10-01T09:19:11.163Z,1007.81
2018-10-01T09:20:11.185Z,1007.75
2018-10-01T09:21:11.156Z,1007.72
2018-10-01T09:22:11.122Z,1007.73
2018-10-01T09:23:11.185Z,1007.71
2018-10-01T09:24:11.096Z,1007.67
2018-10-01T09:25:11.075Z,1007.70
2018-10-01T09:26:11.125Z,1007.70
2018-10-01T09:27:11.042Z,1007.69
2018-10-01T09:28:11.028Z,1007.72
2018-10-01T09:29:11.072Z,1007.72
2018-10-01T09:30:11.003Z,1007.72
2018-10-01T09:31:11.130Z,1007.76
2018-10-01T09:32:11.031Z,1007.73
2018-10-01T09:33:10.955Z,1007.70
2018-10-01T09:34:10.988Z,1007.74
2018-10-01T09:35:10.996Z,1007.76
2018-10-01T09:36:10.909Z,1007.78
2018-10-01T09:37:10.892Z,1007.81
2018-10-01T09:38:10.929Z,1007.85
2018-10-01T09:39:10.863Z,1007.83
2018-10-01T09:40:10.878Z,1007.87
2018-10-01T09:41:10.830Z,1007.89
2018-10-01T09:42:10.849Z,1007.91
2018-10-01T09:43:10.807Z,1007.93
2018-10-01T09:44:10.810Z,1007.87
2018-10-01T09:45:10.774Z,1007.85
2018-10-01T09:46:10.826Z,1007.86
2018-10-01T09:47:10.750Z,1007.93
2018-10-01T09:48:10.736Z,1007.90
2018-10-01T09:49:10.712Z,1007.92
2018-10-01T09:50:10.727Z,1007.97
2018-10-01T09:51:10.699Z,1007.98
2018-10-01T09:52:10.749Z,1008.02
2018-10-01T09:53:10.657Z,1008.03
2018-10-01T09:54:10.654Z,1007.99
2018-10-01T09:55:10.632Z,1007.98
2018-10-01T09:56:10.699Z,1007.98
2018-10-01T09:57:10.605Z,1007.97
2018-10-01T09:58:10.689Z,1007.97
2018-10-01T09:59:10.578Z,1007.89
2018-10-01T10:00:10.570Z,1007.93
2018-10-01T10:01:10.554Z,1007.92
2018-10-01T10:02:10.590Z,1007.89
2018-10-01T10:03:10.521Z,1007.85
2018-10-01T10:04:10.655Z,1007.84
2018-10-01T10:05:10.493Z,1007.86
2018-10-01T10:06:10.476Z,1007.85
2018-10-01T10:07:10.670Z,1007.89
2018-10-01T10:08:10.490Z,1007.84
2018-10-01T10:09:10.440Z,1007.87
2018-10-01T10:10:10.466Z,1007.89
2018-10-01T10:11:10.415Z,1007.84
2018-10-01T10:12:10.397Z,1007.82
2018-10-01T10:13:10.388Z,1007.85
2018-10-01T10:14:10.493Z,1007.84
2018-10-01T10:15:10.364Z,1007.89
2018-10-01T10:16:10.510Z,1007.88
2018-10-01T10:17:10.338Z,1007.92
2018-10-01T10:18:10.328Z,1007.92
2018-10-01T10:19:10.312Z,1007.92
2018-10-01T10:20:10.355Z,1007.91
2018-10-01T10:21:10.288Z,1007.89
2018-10-01T10:22:10.315Z,1007.98
2018-10-01T10:23:10.266Z,1007.97
2018-10-01T10:24:10.252Z,1007.90
2018-10-01T10:25:10.240Z,1007.89
2018-10-01T10:26:10.297Z,1007.88
2018-10-01T10:27:10.292Z,1007.85
2018-10-01T10:28:10.326Z,1007.82
2018-10-01T10:29:10.195Z,1007.76
2018-10-01T10:30:10.178Z,1007.73
2018-10-01T10:31:10.167Z,1007.75
2018-10-01T10:32:10.161Z,1007.74
2018-10-01T10:33:10.141Z,1007.73
2018-10-01T10:34:10.175Z,1007.75
2018-10-01T10:35:10.120Z,1007.75
2018-10-01T10:36:10.106Z,1007.79
2018-10-01T10:37:10.102Z,1007.81
2018-10-01T10:38:10.152Z,1007.76
2018-10-01T10:39:10.074Z,1007.82
2018-10-01T10:40:10.132Z,1007.83
2018-10-01T10:41:10.055Z,1007.84
2018-10-01T10:42:10.037Z,1007.88
2018-10-01T10:43:10.025Z,1007.87
2018-10-01T10:44:10.090Z,1007.88
2018-10-01T10:45:10.004Z,1008.05
2018-10-01T10:46:09.987Z,1008.00
2018-10-01T10:47:09.976Z,1008.03
2018-10-01T10:48:10.057Z,1008.15
2018-10-01T10:49:09.957Z,1007.88
2018-10-01T10:50:10.025Z,1008.12
2018-10-01T10:51:09.936Z,1008.13
2018-10-01T10:52:09.922Z,1007.97
2018-10-01T10:53:09.915Z,1008.01
2018-10-01T10:54:09.898Z,1007.99
2018-10-01T10:55:09.882Z,1007.94
2018-10-01T10:56:09.882Z,1008.12
2018-10-01T10:57:09.866Z,1008.16
2018-10-01T10:58:09.860Z,1008.14
2018-10-01T10:59:09.846Z,1008.24
2018-10-01T11:00:09.831Z,1008.18
2018-10-01T11:01:09.820Z,1008.15
2018-10-01T11:02:09.860Z,1008.13
2018-10-01T11:03:09.798Z,1008.13
2018-10-01T11:04:09.787Z,1008.15
2018-10-01T11:05:09.771Z,1007.85
2018-10-01T11:06:09.763Z,1008.09
2018-10-01T11:07:09.812Z,1008.06
2018-10-01T11:08:09.801Z,1008.00
2018-10-01T11:09:09.728Z,1007.78
2018-10-01T11:10:09.718Z,1008.08
2018-10-01T11:11:09.716Z,1008.07
2018-10-01T11:12:09.698Z,1008.06
2018-10-01T11:13:09.688Z,1007.99
2018-10-01T11:14:09.860Z,1007.95
2018-10-01T11:15:09.859Z,1007.76
2018-10-01T11:16:09.656Z,1008.02
2018-10-01T11:17:09.657Z,1007.83
2018-10-01T11:18:09.634Z,1007.76
2018-10-01T11:19:09.845Z,1008.15
2018-10-01T11:20:09.671Z,1007.83
2018-10-01T11:21:09.647Z,1007.81
2018-10-01T11:22:09.592Z,1007.77
2018-10-01T11:23:09.609Z,1008.16
2018-10-01T11:24:09.578Z,1007.97
2018-10-01T11:25:09.591Z,1008.12
2018-10-01T11:26:09.546Z,1007.80
2018-10-01T11:27:09.610Z,1007.74
2018-10-01T11:28:09.541Z,1007.74
2018-10-01T11:29:09.570Z,1007.68
2018-10-01T11:30:09.502Z,1007.69
2018-10-01T11:31:09.495Z,1007.72
2018-10-01T11:32:09.490Z,1007.68
2018-10-01T11:33:09.541Z,1007.65
2018-10-01T11:34:09.462Z,1007.65
2018-10-01T11:35:09.567Z,1007.61
2018-10-01T11:36:09.442Z,1007.53
2018-10-01T11:37:09.432Z,1007.63
2018-10-01T11:38:09.417Z,1007.71
2018-10-01T11:39:09.450Z,1007.77
2018-10-01T11:40:09.400Z,1007.68
2018-10-01T11:41:09.384Z,1007.73
2018-10-01T11:42:09.377Z,1007.69
2018-10-01T11:43:09.362Z,1007.63
2018-10-01T11:44:09.352Z,1007.72
2018-10-01T11:45:09.421Z,1007.70
2018-10-01T11:46:09.330Z,1007.69
2018-10-01T11:47:09.317Z,1007.79
2018-10-01T11:48:09.306Z,1007.69
2018-10-01T11:49:09.298Z,1007.71
2018-10-01T11:50:09.282Z,1007.69
2018-10-01T11:51:09.388Z,1007.73
2018-10-01T11:52:09.259Z,1007.72
2018-10-01T11:53:09.244Z,1007.70
2018-10-01T11:54:09.314Z,1007.70
2018-10-01T11:55:09.221Z,1007.70
2018-10-01T11:56:09.208Z,1007.65
2018-10-01T11:57:09.253Z,1007.58
2018-10-01T11:58:09.183Z,1007.60
2018-10-01T11:59:09.176Z,1007.63
2018-10-01T12:00:09.164Z,1007.63
2018-10-01T12:01:09.149Z,1007.57
2018-10-01T12:02:09.140Z,1007.54
2018-10-01T12:03:09.193Z,1007.58
2018-10-01T12:04:09.261Z,1007.56
2018-10-01T12:05:09.102Z,1007.55